logo
Search for airport 
image banner adimage banner adimage banner ad
image banner ad

BIMM - Melgerdismelar

Located in Melgerdismelar, Iceland

ICAO - BIMM, IATA -

Data provided by Airmate  

General information

Coordinates: N65°28'60" W18°10'0"
Elevation is 89 feet MSL.
 
View others Airports in Northeast

Operational data

Special qualification required
Current time UTC:
Current local time:
Weather at : BIAR - Akureyri ( 20 km )
METAR: BIAR 191400Z 14002KT CAVOK M00/M08 Q1019
TAF: TAF BIAR 191318Z 1915/2015 VRB02KT 9999 SCT025 BKN037 TX09/2012Z TN02/1915Z BECMG 1915/1916 18012KT PROB40 TEMPO 1918/1923 4500 RASN OVC015 TEMPO 2010/2015 20018G30KT
View NOTAMs / SUP AIP / TFR affecting this airport [VIEW]
Communications frequencies: [VIEW]

Runways:

RWY identifierQFULength (ft)Width (ft)SurfaceLDA (ft)
04220172GRASS
22220172GRASS

Airport contact information

Address: Melgerdismelar Iceland

Satellite view of BIMM